BAW641 LWSK-LTFJ
Flight info
| Callsign | BAW641 |
|---|---|
| Flight time | 1h 16m |
| Altitude | 19000 |
| Route | DCT SIN T215 VELBA/N0440F350 P127 ROVDO N739 ADORU UM19 IBODU DCT |
| Aircraft | A320/M-SDE3FGHIKRWXY/S |
Departure
| Time | 2026-04-20 13:12 |
|---|---|
| Airport | Skopje International Airport (LWSK) |
Arrival
| Time | 2026-04-20 14:29 |
|---|---|
| Airport | Istanbul Sabiha Gökçen International Airport (LTFJ) |
| Time | Latitude | Longitude | Altitude | Speed | Heading |
|---|---|---|---|---|---|
| 2026-04-20 12:53 | 41.96384 | 21.62422 | 785 ft | 0 kts | 257° |
| 2026-04-20 13:07 | 41.96384 | 21.62421 | 785 ft | 0 kts | 254° |
| 2026-04-20 13:08 | 41.96376 | 21.62419 | 785 ft | 4 kts | 196° |
| 2026-04-20 13:08 | 41.96322 | 21.62425 | 785 ft | 10 kts | 170° |
| 2026-04-20 13:08 | 41.96249 | 21.62392 | 785 ft | 13 kts | 182° |
| 2026-04-20 13:08 | 41.96152 | 21.62415 | 784 ft | 16 kts | 165° |
| 2026-04-20 13:09 | 41.96034 | 21.62453 | 783 ft | 19 kts | 167° |
| 2026-04-20 13:09 | 41.95895 | 21.62498 | 782 ft | 22 kts | 166° |
| 2026-04-20 13:09 | 41.95738 | 21.62548 | 781 ft | 22 kts | 166° |
| 2026-04-20 13:09 | 41.95595 | 21.62600 | 780 ft | 22 kts | 163° |
| 2026-04-20 13:10 | 41.95444 | 21.62661 | 780 ft | 24 kts | 165° |
| 2026-04-20 13:10 | 41.95276 | 21.62722 | 778 ft | 25 kts | 165° |
| 2026-04-20 13:10 | 41.95154 | 21.62719 | 778 ft | 18 kts | 218° |
| 2026-04-20 13:10 | 41.95123 | 21.62610 | 779 ft | 0 kts | 254° |
| 2026-04-20 13:11 | 41.95122 | 21.62606 | 779 ft | 2 kts | 254° |
| 2026-04-20 13:11 | 41.95113 | 21.62553 | 780 ft | 9 kts | 267° |
| 2026-04-20 13:12 | 41.95191 | 21.62482 | 779 ft | 31 kts | 346° |
| 2026-04-20 13:12 | 41.95706 | 21.62302 | 780 ft | 118 kts | 345° |
| 2026-04-20 13:12 | 41.96703 | 21.61956 | 959 ft | 162 kts | 345° |
| 2026-04-20 13:12 | 41.97769 | 21.61607 | 1860 ft | 159 kts | 346° |
| 2026-04-20 13:13 | 41.98873 | 21.61242 | 2477 ft | 171 kts | 345° |
| 2026-04-20 13:13 | 42.00101 | 21.60811 | 2787 ft | 193 kts | 342° |
| 2026-04-20 13:13 | 42.01386 | 21.60020 | 3083 ft | 216 kts | 323° |
| 2026-04-20 13:13 | 42.02534 | 21.58574 | 3466 ft | 238 kts | 305° |
| 2026-04-20 13:14 | 42.03306 | 21.56518 | 4003 ft | 254 kts | 284° |
| 2026-04-20 13:14 | 42.03470 | 21.54137 | 4840 ft | 260 kts | 264° |
| 2026-04-20 13:14 | 42.02960 | 21.51801 | 5734 ft | 265 kts | 242° |
| 2026-04-20 13:14 | 42.01804 | 21.49861 | 6617 ft | 270 kts | 220° |
| 2026-04-20 13:15 | 42.00137 | 21.48661 | 7474 ft | 277 kts | 197° |
| 2026-04-20 13:15 | 41.98208 | 21.48332 | 8329 ft | 283 kts | 185° |
| 2026-04-20 13:15 | 41.96234 | 21.48178 | 9152 ft | 286 kts | 185° |
| 2026-04-20 13:15 | 41.94238 | 21.48019 | 9941 ft | 289 kts | 185° |
| 2026-04-20 13:16 | 41.92204 | 21.47654 | 10386 ft | 305 kts | 199° |
| 2026-04-20 13:16 | 41.90130 | 21.46683 | 10591 ft | 327 kts | 201° |
| 2026-04-20 13:16 | 41.87912 | 21.45796 | 11076 ft | 339 kts | 190° |
| 2026-04-20 13:16 | 41.85527 | 21.45890 | 11759 ft | 349 kts | 169° |
| 2026-04-20 13:17 | 41.83280 | 21.47188 | 12418 ft | 358 kts | 147° |
| 2026-04-20 13:17 | 41.81546 | 21.49598 | 13042 ft | 365 kts | 122° |
| 2026-04-20 13:17 | 41.80640 | 21.52784 | 13630 ft | 371 kts | 98° |
| 2026-04-20 13:17 | 41.80740 | 21.56226 | 14260 ft | 374 kts | 76° |
| 2026-04-20 13:18 | 41.81447 | 21.59596 | 14910 ft | 376 kts | 72° |
| 2026-04-20 13:18 | 41.82186 | 21.62921 | 15520 ft | 379 kts | 72° |
| 2026-04-20 13:18 | 41.82948 | 21.66315 | 16112 ft | 382 kts | 72° |
| 2026-04-20 13:18 | 41.83713 | 21.69743 | 16690 ft | 386 kts | 72° |
| 2026-04-20 13:19 | 41.84476 | 21.73209 | 17279 ft | 389 kts | 72° |
| 2026-04-20 13:19 | 41.85241 | 21.76713 | 17859 ft | 392 kts | 72° |
| 2026-04-20 13:19 | 41.86008 | 21.80239 | 18452 ft | 395 kts | 72° |
| 2026-04-20 13:19 | 41.86780 | 21.83789 | 19041 ft | 398 kts | 72° |
| 2026-04-20 13:20 | 41.87557 | 21.87376 | 19618 ft | 402 kts | 72° |
| 2026-04-20 13:20 | 41.88338 | 21.90992 | 20171 ft | 406 kts | 72° |
| 2026-04-20 13:20 | 41.89129 | 21.94646 | 20716 ft | 409 kts | 72° |
| 2026-04-20 13:20 | 41.89925 | 21.98331 | 21244 ft | 413 kts | 72° |
| 2026-04-20 13:21 | 41.90724 | 22.02048 | 21751 ft | 416 kts | 72° |
| 2026-04-20 13:21 | 41.91528 | 22.05790 | 22240 ft | 419 kts | 73° |
| 2026-04-20 13:21 | 41.92334 | 22.09560 | 22730 ft | 422 kts | 73° |
| 2026-04-20 13:21 | 41.93145 | 22.13355 | 23187 ft | 425 kts | 72° |
| 2026-04-20 13:22 | 41.93961 | 22.17173 | 23844 ft | 419 kts | 73° |
| 2026-04-20 13:22 | 41.94743 | 22.20846 | 25090 ft | 399 kts | 72° |
| 2026-04-20 13:22 | 41.95475 | 22.24296 | 26292 ft | 378 kts | 72° |
| 2026-04-20 13:22 | 41.96173 | 22.27612 | 27285 ft | 366 kts | 72° |
| 2026-04-20 13:23 | 41.96877 | 22.30942 | 27401 ft | 376 kts | 72° |
| 2026-04-20 13:23 | 41.97564 | 22.34394 | 27532 ft | 387 kts | 77° |
| 2026-04-20 13:23 | 41.97945 | 22.38008 | 27778 ft | 395 kts | 85° |
| 2026-04-20 13:23 | 41.97962 | 22.41726 | 28032 ft | 400 kts | 91° |
| 2026-04-20 13:24 | 41.97862 | 22.45464 | 28285 ft | 402 kts | 91° |
| 2026-04-20 13:24 | 41.97760 | 22.49220 | 28650 ft | 404 kts | 91° |
| 2026-04-20 13:24 | 41.97659 | 22.53001 | 29035 ft | 405 kts | 91° |
| 2026-04-20 13:24 | 41.97557 | 22.56787 | 29534 ft | 404 kts | 91° |
| 2026-04-20 13:25 | 41.97456 | 22.60550 | 30036 ft | 402 kts | 91° |
| 2026-04-20 13:25 | 41.97354 | 22.64299 | 30534 ft | 400 kts | 91° |
| 2026-04-20 13:25 | 41.97251 | 22.68031 | 31029 ft | 399 kts | 91° |
| 2026-04-20 13:25 | 41.97145 | 22.71744 | 31527 ft | 396 kts | 91° |
| 2026-04-20 13:26 | 41.97039 | 22.75430 | 32025 ft | 393 kts | 91° |
| 2026-04-20 13:26 | 41.96936 | 22.79086 | 32523 ft | 389 kts | 90° |
| 2026-04-20 13:26 | 41.96832 | 22.82694 | 33008 ft | 384 kts | 90° |
| 2026-04-20 13:26 | 41.96729 | 22.86241 | 33305 ft | 385 kts | 90° |
| 2026-04-20 13:27 | 41.96740 | 22.89856 | 33448 ft | 388 kts | 83° |
| 2026-04-20 13:27 | 41.96935 | 22.93500 | 33574 ft | 394 kts | 83° |
| 2026-04-20 13:27 | 41.97133 | 22.97193 | 33701 ft | 399 kts | 83° |
| 2026-04-20 13:27 | 41.97329 | 23.00942 | 33828 ft | 405 kts | 84° |
| 2026-04-20 13:28 | 41.97522 | 23.04744 | 33961 ft | 411 kts | 84° |
| 2026-04-20 13:28 | 41.97715 | 23.08603 | 34083 ft | 416 kts | 84° |
| 2026-04-20 13:28 | 41.97910 | 23.12502 | 34223 ft | 421 kts | 84° |
| 2026-04-20 13:28 | 41.98107 | 23.16465 | 34340 ft | 427 kts | 84° |
| 2026-04-20 13:29 | 41.98305 | 23.20463 | 34467 ft | 432 kts | 84° |
| 2026-04-20 13:29 | 41.98505 | 23.24522 | 34592 ft | 437 kts | 84° |
| 2026-04-20 13:29 | 41.98704 | 23.28562 | 34715 ft | 442 kts | 84° |
| 2026-04-20 13:29 | 41.98908 | 23.32755 | 34877 ft | 446 kts | 84° |
| 2026-04-20 13:30 | 41.99107 | 23.36899 | 34952 ft | 453 kts | 84° |
| 2026-04-20 13:30 | 41.99513 | 23.45496 | 34946 ft | 468 kts | 84° |
| 2026-04-20 13:31 | 41.99922 | 23.54285 | 34941 ft | 472 kts | 84° |
| 2026-04-20 13:31 | 42.00327 | 23.63098 | 34945 ft | 473 kts | 84° |
| 2026-04-20 13:32 | 42.00734 | 23.71938 | 34944 ft | 473 kts | 85° |
| 2026-04-20 13:32 | 42.01129 | 23.80766 | 34943 ft | 473 kts | 85° |
| 2026-04-20 13:33 | 42.01510 | 23.89603 | 34949 ft | 473 kts | 85° |
| 2026-04-20 13:33 | 42.01886 | 23.98425 | 34948 ft | 473 kts | 85° |
| 2026-04-20 13:34 | 42.02260 | 24.07270 | 34941 ft | 473 kts | 85° |
| 2026-04-20 13:34 | 42.02629 | 24.16104 | 34940 ft | 473 kts | 85° |
| 2026-04-20 13:35 | 42.02984 | 24.24889 | 34942 ft | 473 kts | 85° |
| 2026-04-20 13:35 | 42.03338 | 24.33784 | 34946 ft | 474 kts | 85° |
| 2026-04-20 13:36 | 42.03687 | 24.42591 | 34944 ft | 474 kts | 85° |
| 2026-04-20 13:36 | 42.04028 | 24.51443 | 34936 ft | 474 kts | 85° |
| 2026-04-20 13:37 | 42.04364 | 24.60308 | 34922 ft | 474 kts | 85° |
| 2026-04-20 13:37 | 42.04690 | 24.69170 | 34915 ft | 474 kts | 85° |
| 2026-04-20 13:38 | 42.05004 | 24.78029 | 34909 ft | 474 kts | 85° |
| 2026-04-20 13:38 | 42.05263 | 24.86890 | 34905 ft | 475 kts | 90° |
| 2026-04-20 13:39 | 42.04682 | 24.94244 | 34907 ft | 475 kts | 97° |
| 2026-04-20 13:39 | 42.03789 | 25.03056 | 34909 ft | 475 kts | 97° |
| 2026-04-20 13:40 | 42.02902 | 25.11858 | 34906 ft | 475 kts | 97° |
| 2026-04-20 13:40 | 42.01860 | 25.22095 | 34908 ft | 475 kts | 97° |
| 2026-04-20 13:41 | 42.01098 | 25.29461 | 34907 ft | 475 kts | 97° |
| 2026-04-20 13:41 | 42.00181 | 25.38255 | 34911 ft | 474 kts | 97° |
| 2026-04-20 13:42 | 41.99262 | 25.47037 | 34918 ft | 474 kts | 97° |
| 2026-04-20 13:42 | 41.97875 | 25.60145 | 34922 ft | 474 kts | 97° |
| 2026-04-20 13:43 | 41.96941 | 25.68910 | 34923 ft | 474 kts | 97° |
| 2026-04-20 13:43 | 41.95999 | 25.77673 | 34927 ft | 474 kts | 97° |
| 2026-04-20 13:44 | 41.95053 | 25.86431 | 34938 ft | 474 kts | 97° |
| 2026-04-20 13:44 | 41.94094 | 25.95194 | 34940 ft | 474 kts | 98° |
| 2026-04-20 13:45 | 41.93128 | 26.03959 | 34950 ft | 475 kts | 98° |
| 2026-04-20 13:45 | 41.92162 | 26.12662 | 34954 ft | 474 kts | 98° |
| 2026-04-20 13:46 | 41.91190 | 26.21424 | 34959 ft | 474 kts | 98° |
| 2026-04-20 13:46 | 41.90206 | 26.30181 | 34964 ft | 474 kts | 98° |
| 2026-04-20 13:47 | 41.89219 | 26.38940 | 34969 ft | 475 kts | 98° |
| 2026-04-20 13:47 | 41.88216 | 26.47691 | 34971 ft | 474 kts | 98° |
| 2026-04-20 13:48 | 41.86481 | 26.56190 | 34971 ft | 473 kts | 115° |
| 2026-04-20 13:48 | 41.82978 | 26.63614 | 34973 ft | 471 kts | 131° |
| 2026-04-20 13:49 | 41.78817 | 26.70317 | 34974 ft | 471 kts | 131° |
| 2026-04-20 13:49 | 41.74645 | 26.77066 | 34975 ft | 471 kts | 131° |
| 2026-04-20 13:50 | 41.70461 | 26.83826 | 34979 ft | 471 kts | 131° |
| 2026-04-20 13:50 | 41.66272 | 26.90555 | 34984 ft | 471 kts | 131° |
| 2026-04-20 13:51 | 41.62067 | 26.97283 | 34986 ft | 471 kts | 131° |
| 2026-04-20 13:51 | 41.57873 | 27.03994 | 34995 ft | 471 kts | 131° |
| 2026-04-20 13:52 | 41.54336 | 27.11329 | 34985 ft | 472 kts | 111° |
| 2026-04-20 13:52 | 41.52412 | 27.19683 | 35001 ft | 471 kts | 106° |
| 2026-04-20 13:53 | 41.50610 | 27.28083 | 35001 ft | 470 kts | 106° |
| 2026-04-20 13:53 | 41.48815 | 27.36465 | 35001 ft | 470 kts | 107° |
| 2026-04-20 13:54 | 41.47564 | 27.40479 | 34978 ft | 468 kts | 121° |
| 2026-04-20 13:54 | 41.45894 | 27.44204 | 34979 ft | 469 kts | 122° |
| 2026-04-20 13:54 | 41.42505 | 27.51647 | 34977 ft | 470 kts | 122° |
| 2026-04-20 13:55 | 41.39100 | 27.59097 | 35000 ft | 471 kts | 120° |
| 2026-04-20 13:55 | 41.36784 | 27.67155 | 34993 ft | 471 kts | 101° |
| 2026-04-20 13:56 | 41.36470 | 27.75846 | 34993 ft | 470 kts | 83° |
| 2026-04-20 13:56 | 41.37170 | 27.84508 | 34997 ft | 470 kts | 83° |
| 2026-04-20 13:57 | 41.37833 | 27.93170 | 34939 ft | 472 kts | 83° |
| 2026-04-20 13:57 | 41.38161 | 27.97517 | 34682 ft | 472 kts | 83° |
| 2026-04-20 13:57 | 41.38357 | 28.01876 | 34429 ft | 472 kts | 91° |
| 2026-04-20 13:58 | 41.38048 | 28.06228 | 34179 ft | 472 kts | 101° |
| 2026-04-20 13:58 | 41.37420 | 28.10513 | 33741 ft | 473 kts | 101° |
| 2026-04-20 13:58 | 41.36781 | 28.14843 | 32743 ft | 479 kts | 101° |
| 2026-04-20 13:58 | 41.36136 | 28.19215 | 31858 ft | 482 kts | 101° |
| 2026-04-20 13:59 | 41.35493 | 28.23567 | 31304 ft | 476 kts | 101° |
| 2026-04-20 13:59 | 41.34856 | 28.27865 | 30727 ft | 472 kts | 101° |
| 2026-04-20 13:59 | 41.34220 | 28.32139 | 30150 ft | 467 kts | 101° |
| 2026-04-20 13:59 | 41.33589 | 28.36358 | 29567 ft | 464 kts | 101° |
| 2026-04-20 14:00 | 41.32960 | 28.40554 | 28984 ft | 460 kts | 101° |
| 2026-04-20 14:00 | 41.32334 | 28.44711 | 28409 ft | 456 kts | 101° |
| 2026-04-20 14:00 | 41.31712 | 28.48819 | 27846 ft | 452 kts | 101° |
| 2026-04-20 14:00 | 41.31095 | 28.52904 | 27279 ft | 448 kts | 99° |
| 2026-04-20 14:01 | 41.30765 | 28.56940 | 26778 ft | 441 kts | 90° |
| 2026-04-20 14:01 | 41.30779 | 28.60973 | 26392 ft | 433 kts | 88° |
| 2026-04-20 14:01 | 41.30793 | 28.64974 | 25834 ft | 430 kts | 88° |
| 2026-04-20 14:01 | 41.30795 | 28.68925 | 25359 ft | 426 kts | 89° |
| 2026-04-20 14:02 | 41.30791 | 28.72842 | 24893 ft | 422 kts | 88° |
| 2026-04-20 14:02 | 41.30790 | 28.75456 | 24588 ft | 419 kts | 88° |
| 2026-04-20 14:02 | 41.30788 | 28.78815 | 24203 ft | 416 kts | 89° |
| 2026-04-20 14:02 | 41.30784 | 28.82648 | 23748 ft | 413 kts | 89° |
| 2026-04-20 14:03 | 41.30783 | 28.85400 | 23436 ft | 411 kts | 89° |
| 2026-04-20 14:03 | 41.30781 | 28.89185 | 22984 ft | 408 kts | 89° |
| 2026-04-20 14:03 | 41.30781 | 28.92948 | 22551 ft | 405 kts | 89° |
| 2026-04-20 14:03 | 41.30780 | 28.96687 | 22114 ft | 403 kts | 89° |
| 2026-04-20 14:04 | 41.30777 | 29.00400 | 21679 ft | 400 kts | 89° |
| 2026-04-20 14:04 | 41.30771 | 29.04085 | 21248 ft | 397 kts | 89° |
| 2026-04-20 14:04 | 41.30764 | 29.07740 | 20820 ft | 393 kts | 89° |
| 2026-04-20 14:04 | 41.30756 | 29.11363 | 20404 ft | 390 kts | 89° |
| 2026-04-20 14:05 | 41.30746 | 29.14909 | 20256 ft | 377 kts | 89° |
| 2026-04-20 14:05 | 41.30732 | 29.18351 | 20127 ft | 365 kts | 89° |
| 2026-04-20 14:05 | 41.30717 | 29.21676 | 19977 ft | 355 kts | 89° |
| 2026-04-20 14:05 | 41.30716 | 29.24928 | 19648 ft | 350 kts | 88° |
| 2026-04-20 14:06 | 41.30737 | 29.28163 | 19274 ft | 348 kts | 88° |
| 2026-04-20 14:06 | 41.30766 | 29.31329 | 18855 ft | 347 kts | 88° |
| 2026-04-20 14:06 | 41.30795 | 29.34551 | 18504 ft | 343 kts | 88° |
| 2026-04-20 14:06 | 41.30827 | 29.37674 | 18131 ft | 340 kts | 85° |
| 2026-04-20 14:07 | 41.31199 | 29.40753 | 17720 ft | 336 kts | 70° |
| 2026-04-20 14:07 | 41.32149 | 29.43552 | 17354 ft | 330 kts | 55° |
| 2026-04-20 14:07 | 41.33574 | 29.45905 | 16983 ft | 324 kts | 41° |
| 2026-04-20 14:07 | 41.35338 | 29.47713 | 16630 ft | 319 kts | 32° |
| 2026-04-20 14:08 | 41.37162 | 29.49365 | 16278 ft | 316 kts | 32° |
| 2026-04-20 14:08 | 41.38969 | 29.51022 | 15921 ft | 314 kts | 32° |
| 2026-04-20 14:08 | 41.40762 | 29.52673 | 15568 ft | 312 kts | 32° |
| 2026-04-20 14:08 | 41.42546 | 29.54314 | 15199 ft | 311 kts | 32° |
| 2026-04-20 14:09 | 41.44325 | 29.55943 | 14833 ft | 310 kts | 32° |
| 2026-04-20 14:09 | 41.46035 | 29.57691 | 14462 ft | 310 kts | 45° |
| 2026-04-20 14:09 | 41.47145 | 29.60139 | 14101 ft | 312 kts | 71° |
| 2026-04-20 14:09 | 41.47353 | 29.63001 | 13717 ft | 314 kts | 97° |
| 2026-04-20 14:10 | 41.46605 | 29.65719 | 13331 ft | 315 kts | 122° |
| 2026-04-20 14:10 | 41.45368 | 29.68124 | 12933 ft | 315 kts | 124° |
| 2026-04-20 14:10 | 41.44118 | 29.70508 | 12605 ft | 312 kts | 124° |
| 2026-04-20 14:10 | 41.42872 | 29.72885 | 12227 ft | 311 kts | 124° |
| 2026-04-20 14:11 | 41.41640 | 29.75238 | 11853 ft | 311 kts | 124° |
| 2026-04-20 14:11 | 41.40408 | 29.77587 | 11570 ft | 306 kts | 124° |
| 2026-04-20 14:11 | 41.39237 | 29.79824 | 11354 ft | 290 kts | 124° |
| 2026-04-20 14:11 | 41.38106 | 29.81990 | 11027 ft | 279 kts | 124° |
| 2026-04-20 14:12 | 41.37087 | 29.84154 | 10993 ft | 276 kts | 116° |
| 2026-04-20 14:12 | 41.36246 | 29.86450 | 11000 ft | 276 kts | 115° |
| 2026-04-20 14:12 | 41.35403 | 29.88747 | 10999 ft | 276 kts | 115° |
| 2026-04-20 14:12 | 41.34557 | 29.91050 | 10999 ft | 276 kts | 115° |
| 2026-04-20 14:13 | 41.33715 | 29.93343 | 10999 ft | 276 kts | 115° |
| 2026-04-20 14:13 | 41.32812 | 29.95591 | 10989 ft | 276 kts | 124° |
| 2026-04-20 14:13 | 41.31572 | 29.97543 | 10998 ft | 276 kts | 133° |
| 2026-04-20 14:13 | 41.30254 | 29.99400 | 10993 ft | 276 kts | 133° |
| 2026-04-20 14:14 | 41.28937 | 30.01259 | 10998 ft | 276 kts | 133° |
| 2026-04-20 14:14 | 41.27624 | 30.03120 | 11003 ft | 275 kts | 133° |
| 2026-04-20 14:14 | 41.26309 | 30.04974 | 11000 ft | 276 kts | 135° |
| 2026-04-20 14:14 | 41.24790 | 30.06515 | 10998 ft | 275 kts | 150° |
| 2026-04-20 14:15 | 41.23127 | 30.07774 | 10993 ft | 275 kts | 150° |
| 2026-04-20 14:15 | 41.21462 | 30.09034 | 10987 ft | 275 kts | 150° |
| 2026-04-20 14:15 | 41.19802 | 30.10296 | 10986 ft | 275 kts | 150° |
| 2026-04-20 14:15 | 41.18158 | 30.11551 | 10983 ft | 276 kts | 150° |
| 2026-04-20 14:16 | 41.16433 | 30.12657 | 10988 ft | 276 kts | 162° |
| 2026-04-20 14:16 | 41.14568 | 30.13276 | 10997 ft | 276 kts | 167° |
| 2026-04-20 14:16 | 41.12694 | 30.13835 | 10992 ft | 276 kts | 167° |
| 2026-04-20 14:16 | 41.10819 | 30.14395 | 10984 ft | 277 kts | 167° |
| 2026-04-20 14:17 | 41.08937 | 30.14957 | 10987 ft | 276 kts | 167° |
| 2026-04-20 14:17 | 41.07052 | 30.15473 | 10986 ft | 276 kts | 174° |
| 2026-04-20 14:17 | 41.05137 | 30.15485 | 10986 ft | 276 kts | 185° |
| 2026-04-20 14:17 | 41.03223 | 30.15291 | 10987 ft | 276 kts | 185° |
| 2026-04-20 14:18 | 41.01313 | 30.15095 | 10988 ft | 276 kts | 187° |
| 2026-04-20 14:18 | 40.99501 | 30.14343 | 10895 ft | 272 kts | 212° |
| 2026-04-20 14:18 | 40.98132 | 30.12678 | 10591 ft | 268 kts | 238° |
| 2026-04-20 14:18 | 40.97447 | 30.10447 | 10286 ft | 265 kts | 263° |
| 2026-04-20 14:19 | 40.97514 | 30.08031 | 10036 ft | 264 kts | 283° |
| 2026-04-20 14:19 | 40.97924 | 30.05666 | 9855 ft | 265 kts | 283° |
| 2026-04-20 14:19 | 40.98331 | 30.03279 | 9585 ft | 266 kts | 283° |
| 2026-04-20 14:19 | 40.98731 | 30.00893 | 9267 ft | 266 kts | 283° |
| 2026-04-20 14:20 | 40.99130 | 29.98498 | 8941 ft | 266 kts | 283° |
| 2026-04-20 14:20 | 40.99529 | 29.96112 | 8655 ft | 265 kts | 283° |
| 2026-04-20 14:20 | 40.99930 | 29.93735 | 8356 ft | 264 kts | 283° |
| 2026-04-20 14:20 | 41.00327 | 29.91370 | 8048 ft | 263 kts | 283° |
| 2026-04-20 14:21 | 41.00724 | 29.89009 | 7756 ft | 262 kts | 283° |
| 2026-04-20 14:21 | 41.01116 | 29.86682 | 7468 ft | 261 kts | 283° |
| 2026-04-20 14:21 | 41.01506 | 29.84349 | 7178 ft | 260 kts | 282° |
| 2026-04-20 14:21 | 41.01892 | 29.82018 | 6885 ft | 258 kts | 282° |
| 2026-04-20 14:22 | 41.02277 | 29.79694 | 6595 ft | 258 kts | 282° |
| 2026-04-20 14:22 | 41.02663 | 29.77378 | 6304 ft | 257 kts | 283° |
| 2026-04-20 14:22 | 41.03049 | 29.75077 | 6011 ft | 256 kts | 283° |
| 2026-04-20 14:22 | 41.03377 | 29.72772 | 5776 ft | 252 kts | 272° |
| 2026-04-20 14:23 | 41.03161 | 29.70521 | 5609 ft | 244 kts | 250° |
| 2026-04-20 14:23 | 41.02464 | 29.68479 | 5293 ft | 244 kts | 244° |
| 2026-04-20 14:23 | 41.01725 | 29.66461 | 5029 ft | 243 kts | 244° |
| 2026-04-20 14:23 | 41.01010 | 29.64499 | 4991 ft | 229 kts | 244° |
| 2026-04-20 14:24 | 41.00330 | 29.62628 | 4995 ft | 223 kts | 244° |
| 2026-04-20 14:24 | 40.99677 | 29.60834 | 4996 ft | 208 kts | 244° |
| 2026-04-20 14:24 | 40.99068 | 29.59164 | 5026 ft | 198 kts | 244° |
| 2026-04-20 14:24 | 40.98465 | 29.57509 | 4760 ft | 200 kts | 244° |
| 2026-04-20 14:25 | 40.97866 | 29.55865 | 4451 ft | 198 kts | 244° |
| 2026-04-20 14:25 | 40.97270 | 29.54232 | 4155 ft | 196 kts | 244° |
| 2026-04-20 14:25 | 40.96679 | 29.52615 | 3845 ft | 195 kts | 244° |
| 2026-04-20 14:25 | 40.96090 | 29.51001 | 3552 ft | 193 kts | 244° |
| 2026-04-20 14:26 | 40.95514 | 29.49425 | 3256 ft | 193 kts | 244° |
| 2026-04-20 14:26 | 40.94935 | 29.47841 | 2957 ft | 187 kts | 244° |
| 2026-04-20 14:26 | 40.94382 | 29.46330 | 2675 ft | 178 kts | 244° |
| 2026-04-20 14:26 | 40.93851 | 29.44880 | 2402 ft | 171 kts | 243° |
| 2026-04-20 14:27 | 40.93348 | 29.43506 | 2142 ft | 161 kts | 243° |
| 2026-04-20 14:27 | 40.92873 | 29.42210 | 1888 ft | 152 kts | 243° |
| 2026-04-20 14:27 | 40.92428 | 29.40996 | 1677 ft | 143 kts | 243° |
| 2026-04-20 14:27 | 40.91998 | 29.39824 | 1453 ft | 140 kts | 243° |
| 2026-04-20 14:28 | 40.91574 | 29.38668 | 1246 ft | 140 kts | 243° |
| 2026-04-20 14:28 | 40.91151 | 29.37514 | 1024 ft | 139 kts | 243° |
| 2026-04-20 14:28 | 40.90727 | 29.36360 | 818 ft | 139 kts | 243° |
| 2026-04-20 14:28 | 40.90305 | 29.35201 | 612 ft | 139 kts | 243° |
| 2026-04-20 14:29 | 40.89870 | 29.34043 | 392 ft | 140 kts | 243° |
| 2026-04-20 14:29 | 40.89459 | 29.32936 | 298 ft | 113 kts | 245° |
| 2026-04-20 14:29 | 40.89248 | 29.32344 | 302 ft | 41 kts | 242° |
| 2026-04-20 14:29 | 40.89141 | 29.31999 | 301 ft | 40 kts | 256° |
| 2026-04-20 14:30 | 40.89129 | 29.31709 | 302 ft | 15 kts | 274° |
| 2026-04-20 14:30 | 40.89132 | 29.31634 | 301 ft | 0 kts | 272° |
| 2026-04-20 14:30 | 40.89132 | 29.31632 | 301 ft | 1 kts | 272° |
| 2026-04-20 14:31 | 40.89134 | 29.31582 | 301 ft | 10 kts | 274° |
| 2026-04-20 14:31 | 40.89162 | 29.31456 | 301 ft | 18 kts | 315° |
| 2026-04-20 14:31 | 40.89252 | 29.31480 | 304 ft | 15 kts | 57° |
| 2026-04-20 14:31 | 40.89325 | 29.31560 | 303 ft | 15 kts | 345° |
| 2026-04-20 14:32 | 40.89401 | 29.31590 | 302 ft | 14 kts | 63° |
| 2026-04-20 14:32 | 40.89420 | 29.31638 | 301 ft | 0 kts | 63° |